sensor_id;sensor_type;location;lat;lon;timestamp;temperature;humidity
15217;DHT22;7711;46.634;14.318;2022-10-31T00:01:42;8.00;99.90
15217;DHT22;7711;46.634;14.318;2022-10-31T00:04:12;7.90;99.90
15217;DHT22;7711;46.634;14.318;2022-10-31T00:06:39;8.00;99.90
15217;DHT22;7711;46.634;14.318;2022-10-31T00:09:08;7.90;99.90
15217;DHT22;7711;46.634;14.318;2022-10-31T00:11:37;7.80;99.90
15217;DHT22;7711;46.634;14.318;2022-10-31T00:14:10;7.80;99.90
15217;DHT22;7711;46.634;14.318;2022-10-31T00:16:40;7.80;99.90
15217;DHT22;7711;46.634;14.318;2022-10-31T00:19:08;7.70;99.90
15217;DHT22;7711;46.634;14.318;2022-10-31T00:21:35;7.80;99.90
15217;DHT22;7711;46.634;14.318;2022-10-31T00:24:05;7.80;99.90
15217;DHT22;7711;46.634;14.318;2022-10-31T00:26:37;7.70;99.90
15217;DHT22;7711;46.634;14.318;2022-10-31T00:29:06;7.70;99.90
15217;DHT22;7711;46.634;14.318;2022-10-31T00:31:40;7.60;99.90
15217;DHT22;7711;46.634;14.318;2022-10-31T00:34:08;7.70;99.90
15217;DHT22;7711;46.634;14.318;2022-10-31T00:36:35;7.60;99.90
15217;DHT22;7711;46.634;14.318;2022-10-31T00:39:04;7.50;99.90
15217;DHT22;7711;46.634;14.318;2022-10-31T00:41:33;7.50;99.90
15217;DHT22;7711;46.634;14.318;2022-10-31T00:44:00;7.50;99.90
15217;DHT22;7711;46.634;14.318;2022-10-31T00:46:27;7.60;99.90
15217;DHT22;7711;46.634;14.318;2022-10-31T00:48:58;7.60;99.90
15217;DHT22;7711;46.634;14.318;2022-10-31T00:51:26;7.60;99.90
15217;DHT22;7711;46.634;14.318;2022-10-31T00:53:58;7.70;99.90
15217;DHT22;7711;46.634;14.318;2022-10-31T00:56:25;7.60;99.90
15217;DHT22;7711;46.634;14.318;2022-10-31T00:58:52;7.60;99.90
15217;DHT22;7711;46.634;14.318;2022-10-31T01:01:21;7.50;99.90
15217;DHT22;7711;46.634;14.318;2022-10-31T01:03:58;7.50;99.90
15217;DHT22;7711;46.634;14.318;2022-10-31T01:06:29;7.50;99.90
15217;DHT22;7711;46.634;14.318;2022-10-31T01:08:56;7.40;99.90
15217;DHT22;7711;46.634;14.318;2022-10-31T01:11:25;7.40;99.90
15217;DHT22;7711;46.634;14.318;2022-10-31T01:13:53;7.40;99.90
15217;DHT22;7711;46.634;14.318;2022-10-31T01:16:26;7.40;99.90
15217;DHT22;7711;46.634;14.318;2022-10-31T01:18:55;7.40;99.90
15217;DHT22;7711;46.634;14.318;2022-10-31T01:21:26;7.40;99.90
15217;DHT22;7711;46.634;14.318;2022-10-31T01:23:55;7.40;99.90
15217;DHT22;7711;46.634;14.318;2022-10-31T01:26:31;7.40;99.90
15217;DHT22;7711;46.634;14.318;2022-10-31T01:29:03;7.60;99.90
15217;DHT22;7711;46.634;14.318;2022-10-31T01:31:33;7.70;99.90
15217;DHT22;7711;46.634;14.318;2022-10-31T01:34:06;7.80;99.90
15217;DHT22;7711;46.634;14.318;2022-10-31T01:36:45;7.80;99.90
15217;DHT22;7711;46.634;14.318;2022-10-31T01:39:17;7.90;99.90
15217;DHT22;7711;46.634;14.318;2022-10-31T01:41:48;8.00;99.90
15217;DHT22;7711;46.634;14.318;2022-10-31T01:47:40;8.10;99.90
15217;DHT22;7711;46.634;14.318;2022-10-31T01:50:15;8.20;99.90
15217;DHT22;7711;46.634;14.318;2022-10-31T01:52:53;8.10;99.90
15217;DHT22;7711;46.634;14.318;2022-10-31T01:55:25;8.10;99.90
15217;DHT22;7711;46.634;14.318;2022-10-31T01:57:57;8.10;99.90
15217;DHT22;7711;46.634;14.318;2022-10-31T02:00:28;8.10;99.90
15217;DHT22;7711;46.634;14.318;2022-10-31T02:03:11;7.80;99.90
15217;DHT22;7711;46.634;14.318;2022-10-31T02:05:48;8.20;99.90
15217;DHT22;7711;46.634;14.318;2022-10-31T02:08:22;8.20;99.90
15217;DHT22;7711;46.634;14.318;2022-10-31T02:10:52;8.10;99.90
15217;DHT22;7711;46.634;14.318;2022-10-31T02:13:21;7.90;99.90
15217;DHT22;7711;46.634;14.318;2022-10-31T02:15:54;7.80;99.90
15217;DHT22;7711;46.634;14.318;2022-10-31T02:18:24;7.50;99.90
15217;DHT22;7711;46.634;14.318;2022-10-31T02:20:58;7.70;99.90
15217;DHT22;7711;46.634;14.318;2022-10-31T02:26:57;7.70;99.90
15217;DHT22;7711;46.634;14.318;2022-10-31T02:29:56;7.60;99.90
15217;DHT22;7711;46.634;14.318;2022-10-31T02:32:38;7.70;99.90
15217;DHT22;7711;46.634;14.318;2022-10-31T02:35:24;7.70;99.90
15217;DHT22;7711;46.634;14.318;2022-10-31T02:38:13;7.80;99.90
15217;DHT22;7711;46.634;14.318;2022-10-31T02:40:49;7.80;99.90
15217;DHT22;7711;46.634;14.318;2022-10-31T02:43:26;7.90;99.90
15217;DHT22;7711;46.634;14.318;2022-10-31T02:46:00;8.00;99.90
15217;DHT22;7711;46.634;14.318;2022-10-31T02:48:38;8.00;99.90
15217;DHT22;7711;46.634;14.318;2022-10-31T02:51:11;8.00;99.90
15217;DHT22;7711;46.634;14.318;2022-10-31T02:53:39;8.10;99.90
15217;DHT22;7711;46.634;14.318;2022-10-31T02:56:12;8.00;99.90
15217;DHT22;7711;46.634;14.318;2022-10-31T02:58:44;8.00;99.90
15217;DHT22;7711;46.634;14.318;2022-10-31T03:01:41;8.00;99.90
15217;DHT22;7711;46.634;14.318;2022-10-31T03:04:26;8.00;99.90
15217;DHT22;7711;46.634;14.318;2022-10-31T03:07:14;8.00;99.90
15217;DHT22;7711;46.634;14.318;2022-10-31T03:09:51;8.00;99.90
15217;DHT22;7711;46.634;14.318;2022-10-31T03:12:28;8.00;99.90
15217;DHT22;7711;46.634;14.318;2022-10-31T03:15:17;8.00;99.90
15217;DHT22;7711;46.634;14.318;2022-10-31T03:17:52;8.10;99.90
15217;DHT22;7711;46.634;14.318;2022-10-31T03:20:26;8.10;99.90
15217;DHT22;7711;46.634;14.318;2022-10-31T03:22:55;8.10;99.90
15217;DHT22;7711;46.634;14.318;2022-10-31T03:25:24;8.00;99.90
15217;DHT22;7711;46.634;14.318;2022-10-31T03:27:52;8.20;99.90
15217;DHT22;7711;46.634;14.318;2022-10-31T03:30:20;8.10;99.90
15217;DHT22;7711;46.634;14.318;2022-10-31T03:33:00;8.00;99.90
15217;DHT22;7711;46.634;14.318;2022-10-31T03:35:32;8.00;99.90
15217;DHT22;7711;46.634;14.318;2022-10-31T03:38:02;8.00;99.90
15217;DHT22;7711;46.634;14.318;2022-10-31T03:40:30;8.00;99.90
15217;DHT22;7711;46.634;14.318;2022-10-31T03:43:06;8.10;99.90
15217;DHT22;7711;46.634;14.318;2022-10-31T03:45:40;8.10;99.90
15217;DHT22;7711;46.634;14.318;2022-10-31T03:48:11;8.10;99.90
15217;DHT22;7711;46.634;14.318;2022-10-31T03:50:51;8.00;99.90
15217;DHT22;7711;46.634;14.318;2022-10-31T03:53:24;8.00;99.90
15217;DHT22;7711;46.634;14.318;2022-10-31T03:55:59;8.00;99.90
15217;DHT22;7711;46.634;14.318;2022-10-31T03:58:33;8.00;99.90
15217;DHT22;7711;46.634;14.318;2022-10-31T04:01:06;7.90;99.90
15217;DHT22;7711;46.634;14.318;2022-10-31T04:03:43;7.90;99.90
15217;DHT22;7711;46.634;14.318;2022-10-31T04:06:15;7.90;99.90
15217;DHT22;7711;46.634;14.318;2022-10-31T04:08:49;7.90;99.90
15217;DHT22;7711;46.634;14.318;2022-10-31T04:11:21;7.90;99.90
15217;DHT22;7711;46.634;14.318;2022-10-31T04:13:55;7.90;99.90
15217;DHT22;7711;46.634;14.318;2022-10-31T04:16:25;7.80;99.90
15217;DHT22;7711;46.634;14.318;2022-10-31T04:18:53;7.80;99.90
15217;DHT22;7711;46.634;14.318;2022-10-31T04:21:29;7.80;99.90
15217;DHT22;7711;46.634;14.318;2022-10-31T04:24:03;7.80;99.90
15217;DHT22;7711;46.634;14.318;2022-10-31T04:26:30;7.70;99.90
15217;DHT22;7711;46.634;14.318;2022-10-31T04:29:05;7.70;99.90
15217;DHT22;7711;46.634;14.318;2022-10-31T04:31:38;7.70;99.90
15217;DHT22;7711;46.634;14.318;2022-10-31T04:34:06;7.70;99.90
15217;DHT22;7711;46.634;14.318;2022-10-31T04:36:38;7.70;99.90
15217;DHT22;7711;46.634;14.318;2022-10-31T04:39:06;7.80;99.90
15217;DHT22;7711;46.634;14.318;2022-10-31T04:41:35;7.70;99.90
15217;DHT22;7711;46.634;14.318;2022-10-31T04:44:03;7.60;99.90
15217;DHT22;7711;46.634;14.318;2022-10-31T04:46:32;7.60;99.90
15217;DHT22;7711;46.634;14.318;2022-10-31T04:49:00;7.60;99.90
15217;DHT22;7711;46.634;14.318;2022-10-31T04:51:28;7.50;99.90
15217;DHT22;7711;46.634;14.318;2022-10-31T04:54:12;7.50;99.90
15217;DHT22;7711;46.634;14.318;2022-10-31T04:56:39;7.40;99.90
15217;DHT22;7711;46.634;14.318;2022-10-31T04:59:09;7.30;99.90
15217;DHT22;7711;46.634;14.318;2022-10-31T05:01:41;7.20;99.90
15217;DHT22;7711;46.634;14.318;2022-10-31T05:04:08;7.20;99.90
15217;DHT22;7711;46.634;14.318;2022-10-31T05:06:40;7.20;99.90
15217;DHT22;7711;46.634;14.318;2022-10-31T05:09:40;7.20;99.90
15217;DHT22;7711;46.634;14.318;2022-10-31T05:12:10;7.20;99.90
15217;DHT22;7711;46.634;14.318;2022-10-31T05:14:37;7.20;99.90
15217;DHT22;7711;46.634;14.318;2022-10-31T05:17:05;7.20;99.90
15217;DHT22;7711;46.634;14.318;2022-10-31T05:19:34;7.10;99.90
15217;DHT22;7711;46.634;14.318;2022-10-31T05:22:05;7.10;99.90
15217;DHT22;7711;46.634;14.318;2022-10-31T05:24:37;7.00;99.90
15217;DHT22;7711;46.634;14.318;2022-10-31T05:27:05;7.00;99.90
15217;DHT22;7711;46.634;14.318;2022-10-31T05:29:33;7.00;99.90
15217;DHT22;7711;46.634;14.318;2022-10-31T05:32:01;7.00;99.90
15217;DHT22;7711;46.634;14.318;2022-10-31T05:34:30;7.10;99.90
15217;DHT22;7711;46.634;14.318;2022-10-31T05:37:17;7.10;99.90
15217;DHT22;7711;46.634;14.318;2022-10-31T05:39:51;7.10;99.90
15217;DHT22;7711;46.634;14.318;2022-10-31T05:42:20;7.10;99.90
15217;DHT22;7711;46.634;14.318;2022-10-31T05:44:48;7.10;99.90
15217;DHT22;7711;46.634;14.318;2022-10-31T05:47:17;7.20;99.90
15217;DHT22;7711;46.634;14.318;2022-10-31T05:49:50;7.10;99.90
15217;DHT22;7711;46.634;14.318;2022-10-31T05:52:24;7.10;99.90
15217;DHT22;7711;46.634;14.318;2022-10-31T05:54:55;7.10;99.90
15217;DHT22;7711;46.634;14.318;2022-10-31T05:57:24;7.10;99.90
15217;DHT22;7711;46.634;14.318;2022-10-31T05:59:53;7.10;99.90
15217;DHT22;7711;46.634;14.318;2022-10-31T06:02:22;7.10;99.90
15217;DHT22;7711;46.634;14.318;2022-10-31T06:04:49;7.10;99.90
15217;DHT22;7711;46.634;14.318;2022-10-31T06:07:18;7.20;99.90
15217;DHT22;7711;46.634;14.318;2022-10-31T06:09:45;7.20;99.90
15217;DHT22;7711;46.634;14.318;2022-10-31T06:12:16;7.20;99.90
15217;DHT22;7711;46.634;14.318;2022-10-31T06:14:43;7.30;99.90
15217;DHT22;7711;46.634;14.318;2022-10-31T06:17:13;7.30;99.90
15217;DHT22;7711;46.634;14.318;2022-10-31T06:19:42;7.40;99.90
15217;DHT22;7711;46.634;14.318;2022-10-31T06:22:12;7.40;99.90
15217;DHT22;7711;46.634;14.318;2022-10-31T06:24:44;7.50;99.90
15217;DHT22;7711;46.634;14.318;2022-10-31T06:27:12;7.40;99.90
15217;DHT22;7711;46.634;14.318;2022-10-31T06:29:40;7.40;99.90
15217;DHT22;7711;46.634;14.318;2022-10-31T06:32:23;7.40;99.90
15217;DHT22;7711;46.634;14.318;2022-10-31T06:34:50;7.40;99.90
15217;DHT22;7711;46.634;14.318;2022-10-31T06:37:23;7.50;99.90
15217;DHT22;7711;46.634;14.318;2022-10-31T06:39:55;7.50;99.90
15217;DHT22;7711;46.634;14.318;2022-10-31T06:42:31;7.50;99.90
15217;DHT22;7711;46.634;14.318;2022-10-31T06:45:00;7.60;99.90
15217;DHT22;7711;46.634;14.318;2022-10-31T06:47:53;7.70;99.90
15217;DHT22;7711;46.634;14.318;2022-10-31T06:50:40;6.80;99.90
15217;DHT22;7711;46.634;14.318;2022-10-31T06:53:12;7.70;99.90
15217;DHT22;7711;46.634;14.318;2022-10-31T06:55:45;7.80;99.90
15217;DHT22;7711;46.634;14.318;2022-10-31T06:58:23;7.90;99.90
15217;DHT22;7711;46.634;14.318;2022-10-31T07:00:50;7.80;99.90
15217;DHT22;7711;46.634;14.318;2022-10-31T07:03:20;7.90;99.90
15217;DHT22;7711;46.634;14.318;2022-10-31T07:05:51;7.90;99.90
15217;DHT22;7711;46.634;14.318;2022-10-31T07:08:27;7.90;99.90
15217;DHT22;7711;46.634;14.318;2022-10-31T07:10:57;7.90;99.90
15217;DHT22;7711;46.634;14.318;2022-10-31T07:13:27;8.00;99.90
15217;DHT22;7711;46.634;14.318;2022-10-31T07:16:00;8.10;99.90
15217;DHT22;7711;46.634;14.318;2022-10-31T07:18:29;8.20;99.90
15217;DHT22;7711;46.634;14.318;2022-10-31T07:22:33;8.30;99.90
15217;DHT22;7711;46.634;14.318;2022-10-31T07:23:59;8.30;99.90
15217;DHT22;7711;46.634;14.318;2022-10-31T07:26:38;8.30;99.90
15217;DHT22;7711;46.634;14.318;2022-10-31T07:29:19;8.20;99.90
15217;DHT22;7711;46.634;14.318;2022-10-31T07:31:56;8.30;99.90
15217;DHT22;7711;46.634;14.318;2022-10-31T07:34:28;8.30;99.90
15217;DHT22;7711;46.634;14.318;2022-10-31T07:36:59;8.40;99.90
15217;DHT22;7711;46.634;14.318;2022-10-31T07:39:28;8.40;99.90
15217;DHT22;7711;46.634;14.318;2022-10-31T07:42:00;8.50;99.90
15217;DHT22;7711;46.634;14.318;2022-10-31T07:44:30;8.60;99.90
15217;DHT22;7711;46.634;14.318;2022-10-31T07:47:01;8.80;99.90
15217;DHT22;7711;46.634;14.318;2022-10-31T07:49:47;8.60;95.80
15217;DHT22;7711;46.634;14.318;2022-10-31T07:52:28;8.70;93.60
15217;DHT22;7711;46.634;14.318;2022-10-31T07:55:08;8.70;85.40
15217;DHT22;7711;46.634;14.318;2022-10-31T07:57:40;8.70;87.40
15217;DHT22;7711;46.634;14.318;2022-10-31T08:00:14;8.40;93.60
15217;DHT22;7711;46.634;14.318;2022-10-31T08:03:06;8.80;69.70
15217;DHT22;7711;46.634;14.318;2022-10-31T08:05:37;8.80;66.40
15217;DHT22;7711;46.634;14.318;2022-10-31T08:08:09;8.90;36.90
15217;DHT22;7711;46.634;14.318;2022-10-31T08:10:55;9.10;1.00
15217;DHT22;7711;46.634;14.318;2022-10-31T08:13:22;9.40;1.00
15217;DHT22;7711;46.634;14.318;2022-10-31T08:16:08;9.50;1.00
15217;DHT22;7711;46.634;14.318;2022-10-31T08:18:42;9.60;1.00
15217;DHT22;7711;46.634;14.318;2022-10-31T08:21:15;9.70;1.00
15217;DHT22;7711;46.634;14.318;2022-10-31T08:23:50;9.60;1.00
15217;DHT22;7711;46.634;14.318;2022-10-31T08:26:17;9.70;1.00
15217;DHT22;7711;46.634;14.318;2022-10-31T08:28:58;9.80;1.00
15217;DHT22;7711;46.634;14.318;2022-10-31T08:31:29;10.00;1.00
15217;DHT22;7711;46.634;14.318;2022-10-31T08:34:00;9.90;1.00
15217;DHT22;7711;46.634;14.318;2022-10-31T08:36:33;9.80;1.00
15217;DHT22;7711;46.634;14.318;2022-10-31T08:39:06;10.00;1.00
15217;DHT22;7711;46.634;14.318;2022-10-31T08:41:37;10.10;1.00
15217;DHT22;7711;46.634;14.318;2022-10-31T08:44:08;10.10;1.00
15217;DHT22;7711;46.634;14.318;2022-10-31T08:46:43;10.30;1.00
15217;DHT22;7711;46.634;14.318;2022-10-31T08:49:12;10.40;1.00
15217;DHT22;7711;46.634;14.318;2022-10-31T08:51:49;10.40;1.00
15217;DHT22;7711;46.634;14.318;2022-10-31T08:54:18;10.50;1.00
15217;DHT22;7711;46.634;14.318;2022-10-31T08:56:56;10.60;1.00
15217;DHT22;7711;46.634;14.318;2022-10-31T08:59:26;9.80;1.00
15217;DHT22;7711;46.634;14.318;2022-10-31T09:02:00;10.90;1.00
15217;DHT22;7711;46.634;14.318;2022-10-31T09:04:43;11.00;1.00
15217;DHT22;7711;46.634;14.318;2022-10-31T09:07:15;11.10;1.00
15217;DHT22;7711;46.634;14.318;2022-10-31T09:09:45;11.20;1.00
15217;DHT22;7711;46.634;14.318;2022-10-31T09:12:14;11.20;99.90
15217;DHT22;7711;46.634;14.318;2022-10-31T09:14:49;11.30;99.90
15217;DHT22;7711;46.634;14.318;2022-10-31T09:17:20;11.40;1.00
15217;DHT22;7711;46.634;14.318;2022-10-31T09:19:57;11.60;1.00
15217;DHT22;7711;46.634;14.318;2022-10-31T09:22:57;11.70;99.90
15217;DHT22;7711;46.634;14.318;2022-10-31T09:25:27;11.70;99.90
15217;DHT22;7711;46.634;14.318;2022-10-31T09:28:13;12.00;99.90
15217;DHT22;7711;46.634;14.318;2022-10-31T09:31:03;11.90;1.00
15217;DHT22;7711;46.634;14.318;2022-10-31T09:33:31;12.00;1.00
15217;DHT22;7711;46.634;14.318;2022-10-31T09:35:59;12.00;1.00
15217;DHT22;7711;46.634;14.318;2022-10-31T09:38:28;12.20;1.00
15217;DHT22;7711;46.634;14.318;2022-10-31T09:41:05;12.30;99.90
15217;DHT22;7711;46.634;14.318;2022-10-31T09:43:39;12.00;99.90
15217;DHT22;7711;46.634;14.318;2022-10-31T09:46:22;12.40;1.00
15217;DHT22;7711;46.634;14.318;2022-10-31T09:49:11;12.40;1.00
15217;DHT22;7711;46.634;14.318;2022-10-31T09:51:54;12.60;99.90
15217;DHT22;7711;46.634;14.318;2022-10-31T09:54:35;12.80;16.50
15217;DHT22;7711;46.634;14.318;2022-10-31T09:57:07;12.90;99.90
15217;DHT22;7711;46.634;14.318;2022-10-31T10:00:00;13.00;99.90
15217;DHT22;7711;46.634;14.318;2022-10-31T10:02:37;13.10;1.00
15217;DHT22;7711;46.634;14.318;2022-10-31T10:05:27;13.40;1.00
15217;DHT22;7711;46.634;14.318;2022-10-31T10:08:04;13.40;1.00
15217;DHT22;7711;46.634;14.318;2022-10-31T10:10:48;13.70;1.00
15217;DHT22;7711;46.634;14.318;2022-10-31T10:13:39;13.60;1.00
15217;DHT22;7711;46.634;14.318;2022-10-31T10:16:40;13.70;99.90
15217;DHT22;7711;46.634;14.318;2022-10-31T10:19:27;13.90;99.90
15217;DHT22;7711;46.634;14.318;2022-10-31T10:22:12;14.10;99.90
15217;DHT22;7711;46.634;14.318;2022-10-31T10:24:59;14.40;99.90
15217;DHT22;7711;46.634;14.318;2022-10-31T10:27:55;14.30;99.90
15217;DHT22;7711;46.634;14.318;2022-10-31T10:30:33;14.40;1.00
15217;DHT22;7711;46.634;14.318;2022-10-31T10:33:09;14.50;1.00
15217;DHT22;7711;46.634;14.318;2022-10-31T10:35:58;14.60;1.00
15217;DHT22;7711;46.634;14.318;2022-10-31T10:38:36;14.70;1.00
15217;DHT22;7711;46.634;14.318;2022-10-31T10:41:15;14.90;1.00
15217;DHT22;7711;46.634;14.318;2022-10-31T10:44:10;15.20;1.00
15217;DHT22;7711;46.634;14.318;2022-10-31T10:46:41;15.40;1.00
15217;DHT22;7711;46.634;14.318;2022-10-31T10:49:32;15.50;1.00
15217;DHT22;7711;46.634;14.318;2022-10-31T10:52:07;15.60;1.00
15217;DHT22;7711;46.634;14.318;2022-10-31T10:54:45;15.60;1.00
15217;DHT22;7711;46.634;14.318;2022-10-31T10:57:35;15.80;99.90
15217;DHT22;7711;46.634;14.318;2022-10-31T11:00:18;15.80;99.90
15217;DHT22;7711;46.634;14.318;2022-10-31T11:02:46;16.00;99.90
15217;DHT22;7711;46.634;14.318;2022-10-31T11:05:20;16.10;99.90
15217;DHT22;7711;46.634;14.318;2022-10-31T11:07:54;16.20;99.90
15217;DHT22;7711;46.634;14.318;2022-10-31T11:10:21;16.20;99.90
15217;DHT22;7711;46.634;14.318;2022-10-31T11:13:14;16.40;99.90
15217;DHT22;7711;46.634;14.318;2022-10-31T11:15:58;16.30;79.80
15217;DHT22;7711;46.634;14.318;2022-10-31T11:18:34;16.50;26.90
15217;DHT22;7711;46.634;14.318;2022-10-31T11:21:02;16.70;23.70
15217;DHT22;7711;46.634;14.318;2022-10-31T11:23:32;16.80;1.00
15217;DHT22;7711;46.634;14.318;2022-10-31T11:26:03;16.80;1.00
15217;DHT22;7711;46.634;14.318;2022-10-31T11:28:33;16.60;1.00
15217;DHT22;7711;46.634;14.318;2022-10-31T11:31:07;16.80;1.00
15217;DHT22;7711;46.634;14.318;2022-10-31T11:33:38;16.90;1.00
15217;DHT22;7711;46.634;14.318;2022-10-31T11:36:24;17.20;1.00
15217;DHT22;7711;46.634;14.318;2022-10-31T11:38:56;17.30;1.00
15217;DHT22;7711;46.634;14.318;2022-10-31T11:41:26;17.40;1.00
15217;DHT22;7711;46.634;14.318;2022-10-31T11:43:57;17.50;1.00
15217;DHT22;7711;46.634;14.318;2022-10-31T11:46:33;17.60;1.00
15217;DHT22;7711;46.634;14.318;2022-10-31T11:49:05;17.70;1.00
15217;DHT22;7711;46.634;14.318;2022-10-31T11:51:36;17.90;1.00
15217;DHT22;7711;46.634;14.318;2022-10-31T11:54:15;18.10;1.00
15217;DHT22;7711;46.634;14.318;2022-10-31T11:56:45;17.90;1.00
15217;DHT22;7711;46.634;14.318;2022-10-31T11:59:21;18.20;1.00
15217;DHT22;7711;46.634;14.318;2022-10-31T12:01:58;18.20;1.00
15217;DHT22;7711;46.634;14.318;2022-10-31T12:04:40;18.20;1.00
15217;DHT22;7711;46.634;14.318;2022-10-31T12:07:10;18.30;1.00
15217;DHT22;7711;46.634;14.318;2022-10-31T12:09:43;18.40;1.00
15217;DHT22;7711;46.634;14.318;2022-10-31T12:12:38;18.60;1.00
15217;DHT22;7711;46.634;14.318;2022-10-31T12:15:27;18.60;1.00
15217;DHT22;7711;46.634;14.318;2022-10-31T12:21:12;18.80;1.00
15217;DHT22;7711;46.634;14.318;2022-10-31T12:23:48;18.80;1.00
15217;DHT22;7711;46.634;14.318;2022-10-31T12:26:27;18.60;1.00
15217;DHT22;7711;46.634;14.318;2022-10-31T12:29:21;19.00;1.00
15217;DHT22;7711;46.634;14.318;2022-10-31T12:32:03;18.80;1.00
15217;DHT22;7711;46.634;14.318;2022-10-31T12:34:58;19.00;1.00
15217;DHT22;7711;46.634;14.318;2022-10-31T12:37:42;19.20;1.00
15217;DHT22;7711;46.634;14.318;2022-10-31T12:40:33;19.40;99.90
15217;DHT22;7711;46.634;14.318;2022-10-31T12:43:16;19.40;99.90
15217;DHT22;7711;46.634;14.318;2022-10-31T12:45:52;19.70;99.90
15217;DHT22;7711;46.634;14.318;2022-10-31T12:48:42;19.80;99.90
15217;DHT22;7711;46.634;14.318;2022-10-31T12:51:23;20.30;99.90
15217;DHT22;7711;46.634;14.318;2022-10-31T12:54:20;20.80;99.90
15217;DHT22;7711;46.634;14.318;2022-10-31T12:57:16;21.60;99.90
15217;DHT22;7711;46.634;14.318;2022-10-31T12:59:48;21.30;99.90
15217;DHT22;7711;46.634;14.318;2022-10-31T13:02:19;21.90;99.90
15217;DHT22;7711;46.634;14.318;2022-10-31T13:04:53;22.20;99.90
15217;DHT22;7711;46.634;14.318;2022-10-31T13:07:42;23.20;99.90
15217;DHT22;7711;46.634;14.318;2022-10-31T13:13:45;24.00;99.90
15217;DHT22;7711;46.634;14.318;2022-10-31T13:16:44;24.30;99.90
15217;DHT22;7711;46.634;14.318;2022-10-31T13:19:58;24.70;99.90
15217;DHT22;7711;46.634;14.318;2022-10-31T13:23:00;25.30;99.90
15217;DHT22;7711;46.634;14.318;2022-10-31T13:25:49;25.00;99.90
15217;DHT22;7711;46.634;14.318;2022-10-31T14:34:29;24.30;99.90
15217;DHT22;7711;46.634;14.318;2022-10-31T14:40:30;23.60;99.90
15217;DHT22;7711;46.634;14.318;2022-10-31T14:46:10;23.10;99.90
15217;DHT22;7711;46.634;14.318;2022-10-31T14:49:02;23.00;99.90
15217;DHT22;7711;46.634;14.318;2022-10-31T14:51:36;22.30;99.90
15217;DHT22;7711;46.634;14.318;2022-10-31T14:54:10;21.50;99.90
15217;DHT22;7711;46.634;14.318;2022-10-31T14:56:48;21.10;99.90
15217;DHT22;7711;46.634;14.318;2022-10-31T14:59:18;20.50;99.90
15217;DHT22;7711;46.634;14.318;2022-10-31T15:02:00;19.80;99.90
15217;DHT22;7711;46.634;14.318;2022-10-31T15:04:35;19.20;99.90
15217;DHT22;7711;46.634;14.318;2022-10-31T15:07:11;18.70;99.90
15217;DHT22;7711;46.634;14.318;2022-10-31T15:09:42;18.30;99.90
15217;DHT22;7711;46.634;14.318;2022-10-31T15:12:24;18.00;99.90
15217;DHT22;7711;46.634;14.318;2022-10-31T15:14:51;17.70;99.90
15217;DHT22;7711;46.634;14.318;2022-10-31T15:17:21;17.50;99.90
15217;DHT22;7711;46.634;14.318;2022-10-31T15:19:53;17.30;99.90
15217;DHT22;7711;46.634;14.318;2022-10-31T15:22:29;17.00;99.90
15217;DHT22;7711;46.634;14.318;2022-10-31T15:25:03;16.80;99.90
15217;DHT22;7711;46.634;14.318;2022-10-31T15:27:32;16.70;99.90
15217;DHT22;7711;46.634;14.318;2022-10-31T15:30:01;16.50;99.90
15217;DHT22;7711;46.634;14.318;2022-10-31T15:32:29;16.20;99.90
15217;DHT22;7711;46.634;14.318;2022-10-31T15:34:57;16.10;99.90
15217;DHT22;7711;46.634;14.318;2022-10-31T15:37:29;15.90;99.90
15217;DHT22;7711;46.634;14.318;2022-10-31T15:40:07;15.70;99.90
15217;DHT22;7711;46.634;14.318;2022-10-31T15:42:40;15.50;99.90
15217;DHT22;7711;46.634;14.318;2022-10-31T15:45:21;15.40;99.90
15217;DHT22;7711;46.634;14.318;2022-10-31T15:47:55;15.20;99.90
15217;DHT22;7711;46.634;14.318;2022-10-31T15:50:31;15.10;99.90
15217;DHT22;7711;46.634;14.318;2022-10-31T15:53:00;14.90;99.90
15217;DHT22;7711;46.634;14.318;2022-10-31T15:55:30;14.70;99.90
15217;DHT22;7711;46.634;14.318;2022-10-31T15:58:04;14.60;99.90
15217;DHT22;7711;46.634;14.318;2022-10-31T16:00:40;14.50;99.90
15217;DHT22;7711;46.634;14.318;2022-10-31T16:03:27;14.40;1.00
15217;DHT22;7711;46.634;14.318;2022-10-31T16:05:57;14.20;1.00
15217;DHT22;7711;46.634;14.318;2022-10-31T16:08:32;14.10;1.00
15217;DHT22;7711;46.634;14.318;2022-10-31T16:11:15;14.00;1.00
15217;DHT22;7711;46.634;14.318;2022-10-31T16:13:55;13.80;1.00
15217;DHT22;7711;46.634;14.318;2022-10-31T16:16:24;13.70;1.00
15217;DHT22;7711;46.634;14.318;2022-10-31T16:19:01;13.60;99.90
15217;DHT22;7711;46.634;14.318;2022-10-31T16:21:51;13.50;99.90
15217;DHT22;7711;46.634;14.318;2022-10-31T16:24:26;13.50;1.00
15217;DHT22;7711;46.634;14.318;2022-10-31T16:27:01;13.30;1.00
15217;DHT22;7711;46.634;14.318;2022-10-31T16:29:33;13.30;1.00
15217;DHT22;7711;46.634;14.318;2022-10-31T16:32:01;13.30;99.90
15217;DHT22;7711;46.634;14.318;2022-10-31T16:34:30;13.10;1.00
15217;DHT22;7711;46.634;14.318;2022-10-31T16:36:57;13.10;1.00
15217;DHT22;7711;46.634;14.318;2022-10-31T16:39:26;13.10;1.00
15217;DHT22;7711;46.634;14.318;2022-10-31T16:41:55;13.00;1.00
15217;DHT22;7711;46.634;14.318;2022-10-31T16:44:24;12.80;99.90
15217;DHT22;7711;46.634;14.318;2022-10-31T16:47:08;12.70;1.00
15217;DHT22;7711;46.634;14.318;2022-10-31T16:49:36;12.60;1.00
15217;DHT22;7711;46.634;14.318;2022-10-31T16:52:03;12.50;1.00
15217;DHT22;7711;46.634;14.318;2022-10-31T16:54:32;12.50;99.90
15217;DHT22;7711;46.634;14.318;2022-10-31T16:57:04;12.40;1.00
15217;DHT22;7711;46.634;14.318;2022-10-31T16:59:39;12.40;99.90
15217;DHT22;7711;46.634;14.318;2022-10-31T17:02:13;12.40;58.60
15217;DHT22;7711;46.634;14.318;2022-10-31T17:04:41;12.30;1.00
15217;DHT22;7711;46.634;14.318;2022-10-31T17:07:10;12.20;1.00
15217;DHT22;7711;46.634;14.318;2022-10-31T17:09:40;12.10;99.90
15217;DHT22;7711;46.634;14.318;2022-10-31T17:12:22;12.10;1.00
15217;DHT22;7711;46.634;14.318;2022-10-31T17:15:00;12.10;99.90
15217;DHT22;7711;46.634;14.318;2022-10-31T17:17:28;11.90;1.00
15217;DHT22;7711;46.634;14.318;2022-10-31T17:19:55;11.90;1.00
15217;DHT22;7711;46.634;14.318;2022-10-31T17:22:44;11.90;1.00
15217;DHT22;7711;46.634;14.318;2022-10-31T17:25:21;11.80;1.00
15217;DHT22;7711;46.634;14.318;2022-10-31T17:27:52;11.80;99.90
15217;DHT22;7711;46.634;14.318;2022-10-31T17:30:21;11.70;1.00
15217;DHT22;7711;46.634;14.318;2022-10-31T17:32:49;11.50;99.90
15217;DHT22;7711;46.634;14.318;2022-10-31T17:35:20;11.50;1.00
15217;DHT22;7711;46.634;14.318;2022-10-31T17:37:48;11.60;1.00
15217;DHT22;7711;46.634;14.318;2022-10-31T17:40:21;11.40;1.00
15217;DHT22;7711;46.634;14.318;2022-10-31T17:42:49;11.30;1.00
15217;DHT22;7711;46.634;14.318;2022-10-31T17:45:19;11.30;1.00
15217;DHT22;7711;46.634;14.318;2022-10-31T17:47:50;11.30;1.00
15217;DHT22;7711;46.634;14.318;2022-10-31T17:50:21;11.30;1.00
15217;DHT22;7711;46.634;14.318;2022-10-31T17:52:51;11.30;1.00
15217;DHT22;7711;46.634;14.318;2022-10-31T17:55:21;11.20;1.00
15217;DHT22;7711;46.634;14.318;2022-10-31T17:57:49;11.20;1.00